createdAt,value
2018-04-11T00:00:17.330Z,13.59
2018-04-11T00:02:45.696Z,13.66
2018-04-11T00:05:16.065Z,13.72
2018-04-11T00:07:44.210Z,13.70
2018-04-11T00:10:12.577Z,13.69
2018-04-11T00:12:40.965Z,13.67
2018-04-11T00:15:14.263Z,13.68
2018-04-11T00:17:42.668Z,13.68
2018-04-11T00:20:15.280Z,13.70
2018-04-11T00:22:43.685Z,13.71
2018-04-11T00:25:12.716Z,13.75
2018-04-11T00:27:41.087Z,13.72
2018-04-11T00:30:15.217Z,13.63
2018-04-11T00:32:43.593Z,13.57
2018-04-11T00:35:14.465Z,13.46
2018-04-11T00:37:42.818Z,13.36
2018-04-11T00:40:15.451Z,13.35
2018-04-11T00:42:43.816Z,13.38
2018-04-11T00:45:15.690Z,13.35
2018-04-11T00:47:44.061Z,13.34
2018-04-11T00:50:12.447Z,13.37
2018-04-11T00:52:40.250Z,13.30
2018-04-11T00:55:11.017Z,13.21
2018-04-11T00:57:39.401Z,12.91
2018-04-11T01:00:11.249Z,12.59
2018-04-11T01:02:39.406Z,12.48
2018-04-11T01:05:08.287Z,12.42
2018-04-11T01:07:36.659Z,12.05
2018-04-11T01:10:10.922Z,12.39
2018-04-11T01:12:39.314Z,12.42
2018-04-11T01:15:14.661Z,11.86
2018-04-11T01:17:43.043Z,12.47
2018-04-11T01:20:12.715Z,12.43
2018-04-11T01:22:41.072Z,12.43
2018-04-11T01:25:12.513Z,12.42
2018-04-11T01:27:40.876Z,12.43
2018-04-11T01:30:15.660Z,12.46
2018-04-11T01:32:44.073Z,12.44
2018-04-11T01:35:15.182Z,12.41
2018-04-11T01:37:43.555Z,12.44
2018-04-11T01:40:16.380Z,12.42
2018-04-11T01:42:44.753Z,12.53
2018-04-11T01:45:18.578Z,11.95
2018-04-11T01:47:46.963Z,12.41
2018-04-11T01:50:17.142Z,12.33
2018-04-11T01:52:45.515Z,12.39
2018-04-11T01:55:13.882Z,12.44
2018-04-11T01:57:42.292Z,12.38
2018-04-11T02:00:15.071Z,12.33
2018-04-11T02:02:43.444Z,12.24
2018-04-11T02:05:13.281Z,12.15
2018-04-11T02:07:41.666Z,12.05
2018-04-11T02:10:14.007Z,11.99
2018-04-11T02:12:42.385Z,12.00
2018-04-11T02:15:10.534Z,12.07
2018-04-11T02:17:38.669Z,12.14
2018-04-11T02:20:14.588Z,12.13
2018-04-11T02:22:42.977Z,12.09
2018-04-11T02:25:13.190Z,11.96
2018-04-11T02:27:41.616Z,11.70
2018-04-11T02:30:18.928Z,11.59
2018-04-11T02:32:47.285Z,11.51
2018-04-11T02:35:15.665Z,11.48
2018-04-11T02:37:44.052Z,11.41
2018-04-11T02:40:15.912Z,11.39
2018-04-11T02:42:44.400Z,11.29
2018-04-11T02:45:16.500Z,11.19
2018-04-11T02:47:44.865Z,11.24
2018-04-11T02:50:17.713Z,11.12
2018-04-11T02:52:46.070Z,11.21
2018-04-11T02:55:17.755Z,11.18
2018-04-11T02:57:46.119Z,11.20
2018-04-11T03:00:16.604Z,11.27
2018-04-11T03:02:44.970Z,11.23
2018-04-11T03:05:16.458Z,11.08
2018-04-11T03:07:44.843Z,11.02
2018-04-11T03:10:15.036Z,10.81
2018-04-11T03:12:43.397Z,10.69
2018-04-11T03:15:19.425Z,10.60
2018-04-11T03:17:47.793Z,10.64
2018-04-11T03:20:16.150Z,10.69
2018-04-11T03:22:44.514Z,10.76
2018-04-11T03:25:13.364Z,10.80
2018-04-11T03:27:41.764Z,10.81
2018-04-11T03:30:12.861Z,10.83
2018-04-11T03:32:41.243Z,10.86
2018-04-11T03:35:12.996Z,10.88
2018-04-11T03:37:41.380Z,10.84
2018-04-11T03:40:15.330Z,10.80
2018-04-11T03:42:43.705Z,10.74
2018-04-11T03:45:14.802Z,10.73
2018-04-11T03:47:43.191Z,10.66
2018-04-11T03:50:14.236Z,10.69
2018-04-11T03:52:42.645Z,10.65
2018-04-11T03:55:16.743Z,10.57
2018-04-11T03:57:45.116Z,10.54
2018-04-11T04:00:13.497Z,10.60
2018-04-11T04:02:41.873Z,10.62
2018-04-11T04:05:14.011Z,9.91
2018-04-11T04:07:42.434Z,10.49
2018-04-11T04:10:15.610Z,10.39
2018-04-11T04:12:43.980Z,10.32
2018-04-11T04:15:23.808Z,9.87
2018-04-11T04:18:03.477Z,10.23
2018-04-11T04:20:37.415Z,10.06
2018-04-11T04:23:05.851Z,10.08
2018-04-11T04:25:33.993Z,10.11
2018-04-11T04:28:02.373Z,10.11
2018-04-11T04:30:30.783Z,10.10
2018-04-11T04:32:58.926Z,10.12
2018-04-11T04:35:27.286Z,10.05
2018-04-11T04:37:55.678Z,10.15
2018-04-11T04:40:24.046Z,10.19
2018-04-11T04:42:52.419Z,10.18
2018-04-11T04:45:20.796Z,10.17
2018-04-11T04:47:49.159Z,10.18
2018-04-11T04:50:17.532Z,10.08
2018-04-11T04:52:45.914Z,10.08
2018-04-11T04:55:14.345Z,10.03
2018-04-11T04:57:42.858Z,10.02
2018-04-11T05:00:13.879Z,10.06
2018-04-11T05:02:42.059Z,10.04
2018-04-11T05:05:15.075Z,10.10
2018-04-11T05:07:43.465Z,9.98
2018-04-11T05:10:11.838Z,10.00
2018-04-11T05:12:40.222Z,9.99
2018-04-11T05:15:15.543Z,10.08
2018-04-11T05:17:43.926Z,10.13
2018-04-11T05:20:13.745Z,9.86
2018-04-11T05:22:42.113Z,10.20
2018-04-11T05:25:11.452Z,10.29
2018-04-11T05:27:39.845Z,10.41
2018-04-11T05:30:11.847Z,10.43
2018-04-11T05:32:39.985Z,10.46
2018-04-11T05:35:08.845Z,10.52
2018-04-11T05:37:37.220Z,10.64
2018-04-11T05:42:39.941Z,10.81
2018-04-11T05:45:09.444Z,10.83
2018-04-11T05:47:37.825Z,10.91
2018-04-11T05:50:08.697Z,10.96
2018-04-11T05:52:37.108Z,11.02
2018-04-11T05:55:10.524Z,11.07
2018-04-11T05:57:38.909Z,11.15
2018-04-11T06:00:08.742Z,11.28
2018-04-11T06:02:37.116Z,11.38
2018-04-11T06:05:08.446Z,11.51
2018-04-11T06:07:36.821Z,11.63
2018-04-11T06:10:06.868Z,11.68
2018-04-11T06:12:35.237Z,11.79
2018-04-11T06:15:03.610Z,11.92
2018-04-11T06:17:31.967Z,12.07
2018-04-11T06:20:00.476Z,12.15
2018-04-11T06:22:28.856Z,12.26
2018-04-11T06:24:57.222Z,12.39
2018-04-11T06:27:25.604Z,12.52
2018-04-11T06:29:54.029Z,12.62
2018-04-11T06:32:22.451Z,12.74
2018-04-11T06:34:50.970Z,12.85
2018-04-11T06:37:19.371Z,12.90
2018-04-11T06:39:48.417Z,12.92
2018-04-11T06:42:17.097Z,13.03
2018-04-11T06:44:45.499Z,13.09
2018-04-11T06:47:13.871Z,13.22
2018-04-11T06:49:42.244Z,13.32
2018-04-11T06:52:10.616Z,13.46
2018-04-11T06:54:39.002Z,13.56
2018-04-11T06:57:07.372Z,13.65
2018-04-11T06:59:35.737Z,13.75
2018-04-11T07:02:04.140Z,13.87
2018-04-11T07:04:32.582Z,13.94
2018-04-11T07:07:00.966Z,14.01
2018-04-11T07:09:29.366Z,14.10
2018-04-11T07:11:57.754Z,14.12
2018-04-11T07:14:26.142Z,14.15
2018-04-11T07:16:54.547Z,14.31
2018-04-11T07:19:22.913Z,14.41
2018-04-11T07:21:51.318Z,14.44
2018-04-11T07:24:19.721Z,14.58
2018-04-11T07:26:48.125Z,14.66
2018-04-11T07:29:16.508Z,14.80
2018-04-11T07:31:44.899Z,14.90
2018-04-11T07:34:13.282Z,15.11
2018-04-11T07:36:41.653Z,15.25
2018-04-11T07:39:10.029Z,15.43
2018-04-11T07:41:38.413Z,15.52
2018-04-11T07:44:06.784Z,15.57
2018-04-11T07:46:35.157Z,15.70
2018-04-11T07:49:03.533Z,15.82
2018-04-11T07:51:31.910Z,15.99
2018-04-11T07:54:00.304Z,16.14
2018-04-11T07:56:28.674Z,16.25
2018-04-11T07:58:57.075Z,16.29
2018-04-11T08:01:25.471Z,16.42
2018-04-11T08:03:53.849Z,16.52
2018-04-11T08:06:22.245Z,16.56
2018-04-11T08:08:50.622Z,16.65
2018-04-11T08:11:19.009Z,16.77
2018-04-11T08:13:47.377Z,16.84
2018-04-11T08:16:15.765Z,16.90
2018-04-11T08:18:44.138Z,16.85
2018-04-11T08:21:12.302Z,16.92
2018-04-11T08:23:39.889Z,16.89
2018-04-11T08:26:08.035Z,16.88
2018-04-11T08:28:36.173Z,16.82
2018-04-11T08:31:04.550Z,16.79
2018-04-11T08:33:32.916Z,16.76
2018-04-11T08:36:01.286Z,16.79
2018-04-11T08:38:29.676Z,16.68
2018-04-11T08:40:58.066Z,16.72
2018-04-11T08:43:26.475Z,16.59
2018-04-11T08:45:55.345Z,16.61
2018-04-11T08:48:23.714Z,16.58
2018-04-11T08:50:52.291Z,16.64
2018-04-11T08:53:20.676Z,16.53
2018-04-11T08:55:49.058Z,16.60
2018-04-11T08:58:17.437Z,16.71
2018-04-11T09:00:45.832Z,16.74
2018-04-11T09:03:14.209Z,16.83
2018-04-11T09:05:42.358Z,16.96
2018-04-11T09:08:10.486Z,17.14
2018-04-11T09:10:38.894Z,17.26
2018-04-11T09:13:07.273Z,17.34
2018-04-11T09:15:35.652Z,17.43
2018-04-11T09:18:04.057Z,17.53
2018-04-11T09:20:32.449Z,17.69
2018-04-11T09:23:00.804Z,17.92
2018-04-11T09:25:29.219Z,18.03
2018-04-11T09:27:57.622Z,18.26
2018-04-11T09:30:26.036Z,18.51
2018-04-11T09:32:54.434Z,18.53
2018-04-11T09:35:22.811Z,18.68
2018-04-11T09:37:51.200Z,18.75
2018-04-11T09:40:19.576Z,18.92
2018-04-11T09:42:47.941Z,19.13
2018-04-11T09:45:16.320Z,19.28
2018-04-11T09:47:44.701Z,19.57
2018-04-11T09:50:14.431Z,19.96
2018-04-11T09:52:42.909Z,20.22
2018-04-11T09:55:11.879Z,20.96
2018-04-11T09:57:40.256Z,21.81
2018-04-11T10:00:13.003Z,22.45
2018-04-11T10:02:41.142Z,23.32
2018-04-11T10:05:12.690Z,22.78
2018-04-11T10:07:42.708Z,23.49
2018-04-11T10:10:16.326Z,22.98
2018-04-11T10:12:44.686Z,23.43
2018-04-11T10:15:13.582Z,23.53
2018-04-11T10:17:41.969Z,23.67
2018-04-11T10:20:16.623Z,23.99
2018-04-11T10:22:44.764Z,24.13
2018-04-11T10:25:13.143Z,24.42
2018-04-11T10:27:41.521Z,25.48
2018-04-11T10:30:11.237Z,25.26
2018-04-11T10:32:39.601Z,25.05
2018-04-11T10:35:12.311Z,24.59
2018-04-11T10:37:40.705Z,23.73
2018-04-11T10:40:16.358Z,23.26
2018-04-11T10:42:44.730Z,23.65
2018-04-11T10:45:17.005Z,24.25
2018-04-11T10:47:45.373Z,24.15
2018-04-11T10:50:15.186Z,24.10
2018-04-11T10:52:43.793Z,24.15
2018-04-11T10:55:17.889Z,23.71
2018-04-11T10:57:46.264Z,23.78
2018-04-11T11:00:14.640Z,23.43
2018-04-11T11:02:43.162Z,22.84
2018-04-11T11:05:12.547Z,22.42
2018-04-11T11:07:40.908Z,21.98
2018-04-11T11:10:11.893Z,22.12
2018-04-11T11:12:40.031Z,22.51
2018-04-11T11:15:15.779Z,22.85
2018-04-11T11:17:44.164Z,23.06
2018-04-11T11:20:17.934Z,23.49
2018-04-11T11:22:46.576Z,23.30
2018-04-11T11:25:14.557Z,23.54
2018-04-11T11:27:42.698Z,23.73
2018-04-11T11:30:16.122Z,24.00
2018-04-11T11:32:44.552Z,24.14
2018-04-11T11:35:12.729Z,24.47
2018-04-11T11:37:41.117Z,24.68
2018-04-11T11:40:09.490Z,24.71
2018-04-11T11:42:37.908Z,24.77
2018-04-11T11:45:15.102Z,25.07
2018-04-11T11:47:43.467Z,25.25
2018-04-11T11:50:12.214Z,25.03
2018-04-11T11:52:40.590Z,25.39
2018-04-11T11:55:09.042Z,25.42
2018-04-11T11:57:37.405Z,25.27
2018-04-11T12:00:06.408Z,25.17
2018-04-11T12:02:35.122Z,25.31
2018-04-11T12:05:03.391Z,25.57
2018-04-11T12:07:31.769Z,25.43
2018-04-11T12:10:00.153Z,25.57
2018-04-11T12:12:28.600Z,25.42
2018-04-11T12:14:56.977Z,25.44
2018-04-11T12:17:25.345Z,25.20
2018-04-11T12:19:54.058Z,25.29
2018-04-11T12:22:22.433Z,25.43
2018-04-11T12:24:50.793Z,25.44
2018-04-11T12:27:19.161Z,25.42
2018-04-11T12:29:47.599Z,25.18
2018-04-11T12:32:16.007Z,25.08
2018-04-11T12:34:44.405Z,24.47
2018-04-11T12:37:12.787Z,24.46
2018-04-11T12:39:41.467Z,24.72
2018-04-11T12:42:09.841Z,24.59
2018-04-11T12:44:38.206Z,24.32
2018-04-11T12:47:06.591Z,24.52
2018-04-11T12:49:34.956Z,24.41
2018-04-11T12:52:03.343Z,24.68
2018-04-11T12:54:31.478Z,24.96
2018-04-11T12:56:59.840Z,24.76
2018-04-11T12:59:28.241Z,24.74
2018-04-11T13:01:56.609Z,24.53
2018-04-11T13:04:24.990Z,24.73
2018-04-11T13:06:53.353Z,25.02
2018-04-11T13:09:21.789Z,24.80
2018-04-11T13:11:49.937Z,24.74
2018-04-11T13:14:18.085Z,24.02
2018-04-11T13:16:46.456Z,24.04
2018-04-11T13:19:14.604Z,24.02
2018-04-11T13:21:42.751Z,24.34
2018-04-11T13:24:11.105Z,24.45
2018-04-11T13:26:39.486Z,24.39
2018-04-11T13:29:07.850Z,24.38
2018-04-11T13:31:36.235Z,24.07
2018-04-11T13:34:04.599Z,24.05
2018-04-11T13:36:33.413Z,24.17
2018-04-11T13:39:01.573Z,24.07
2018-04-11T13:41:29.952Z,24.05
2018-04-11T13:43:58.105Z,24.05
2018-04-11T13:46:26.241Z,23.99
2018-04-11T13:48:54.386Z,24.00
2018-04-11T13:51:22.787Z,24.05
2018-04-11T13:53:50.922Z,23.58
2018-04-11T13:56:19.435Z,23.34
2018-04-11T13:58:47.946Z,23.22
2018-04-11T14:01:16.323Z,23.15
2018-04-11T14:03:44.707Z,23.03
2018-04-11T14:06:12.761Z,22.81
2018-04-11T14:08:40.901Z,22.87
2018-04-11T14:11:09.277Z,22.86
2018-04-11T14:13:37.419Z,22.73
2018-04-11T14:16:05.578Z,22.66
2018-04-11T14:18:33.955Z,22.62
2018-04-11T14:21:02.345Z,22.55
2018-04-11T14:23:30.733Z,22.58
2018-04-11T14:25:58.902Z,22.63
2018-04-11T14:28:27.035Z,22.62
2018-04-11T14:30:55.453Z,22.74
2018-04-11T14:33:23.822Z,22.87
2018-04-11T14:35:52.294Z,22.68
2018-04-11T14:38:20.696Z,22.66
2018-04-11T14:40:48.836Z,22.61
2018-04-11T14:43:17.201Z,22.60
2018-04-11T14:45:45.351Z,22.62
2018-04-11T14:48:13.501Z,22.65
2018-04-11T14:50:41.893Z,22.59
2018-04-11T14:53:10.258Z,22.63
2018-04-11T14:55:38.621Z,22.58
2018-04-11T14:58:07.010Z,22.39
2018-04-11T15:00:35.386Z,22.31
2018-04-11T15:03:03.765Z,22.25
2018-04-11T15:05:32.137Z,22.27
2018-04-11T15:08:00.511Z,22.19
2018-04-11T15:10:28.932Z,22.18
2018-04-11T15:12:57.319Z,22.14
2018-04-11T15:15:25.702Z,22.02
2018-04-11T15:17:54.096Z,22.01
2018-04-11T15:20:23.056Z,21.98
2018-04-11T15:22:51.449Z,21.96
2018-04-11T15:25:19.842Z,21.83
2018-04-11T15:27:48.210Z,21.81
2018-04-11T15:30:16.591Z,21.70
2018-04-11T15:32:44.973Z,21.72
2018-04-11T15:35:13.012Z,21.71
2018-04-11T15:37:41.383Z,21.28
2018-04-11T15:40:15.825Z,21.79
2018-04-11T15:42:44.228Z,21.66
2018-04-11T15:45:12.642Z,21.57
2018-04-11T15:47:41.033Z,21.39
2018-04-11T15:50:10.240Z,20.93
2018-04-11T15:52:38.611Z,21.34
2018-04-11T15:55:12.778Z,21.29
2018-04-11T15:57:41.153Z,21.23
2018-04-11T16:00:16.412Z,21.26
2018-04-11T16:02:44.773Z,21.19
2018-04-11T16:05:13.309Z,21.11
2018-04-11T16:07:41.705Z,21.08
2018-04-11T16:10:13.252Z,21.07
2018-04-11T16:12:41.632Z,21.02
2018-04-11T16:15:14.294Z,20.98
2018-04-11T16:17:42.673Z,20.86
2018-04-11T16:20:17.344Z,20.78
2018-04-11T16:22:45.705Z,20.82
2018-04-11T16:25:14.085Z,20.62
2018-04-11T16:27:42.465Z,20.75
2018-04-11T16:30:10.857Z,20.42
2018-04-11T16:32:39.218Z,20.64
2018-04-11T16:35:14.940Z,19.96
2018-04-11T16:37:43.343Z,20.51
2018-04-11T16:40:16.816Z,20.21
2018-04-11T16:42:45.197Z,20.34
2018-04-11T16:45:13.401Z,20.33
2018-04-11T16:47:41.775Z,20.27
2018-04-11T16:50:15.274Z,20.25
2018-04-11T16:52:43.465Z,20.18
2018-04-11T16:55:16.869Z,19.55
2018-04-11T16:57:45.249Z,20.05
2018-04-11T17:00:17.903Z,20.05
2018-04-11T17:02:46.645Z,20.01
2018-04-11T17:05:15.012Z,19.90
2018-04-11T17:07:43.392Z,19.86
2018-04-11T17:10:17.024Z,19.80
2018-04-11T17:12:45.425Z,19.75
2018-04-11T17:15:13.567Z,19.68
2018-04-11T17:17:41.948Z,19.64
2018-04-11T17:20:16.377Z,19.62
2018-04-11T17:22:55.672Z,19.53
2018-04-11T17:25:34.879Z,19.45
2018-04-11T17:28:14.171Z,19.35
2018-04-11T17:30:53.655Z,19.33
2018-04-11T17:33:22.051Z,19.32
2018-04-11T17:35:50.434Z,19.28
2018-04-11T17:38:18.801Z,19.26
2018-04-11T17:40:47.179Z,19.09
2018-04-11T17:43:15.840Z,19.22
2018-04-11T17:45:44.206Z,19.17
2018-04-11T17:48:12.586Z,19.13
2018-04-11T17:50:40.737Z,19.08
2018-04-11T17:53:09.139Z,19.05
2018-04-11T17:55:37.518Z,19.01
2018-04-11T17:58:05.899Z,18.99
2018-04-11T18:00:34.374Z,18.96
2018-04-11T18:03:03.033Z,18.91
2018-04-11T18:05:31.536Z,18.88
2018-04-11T18:07:59.924Z,18.83
2018-04-11T18:10:28.284Z,18.80
2018-04-11T18:12:56.661Z,18.77
2018-04-11T18:15:25.355Z,18.74
2018-04-11T18:17:53.726Z,18.69
2018-04-11T18:20:22.298Z,18.65
2018-04-11T18:22:50.678Z,18.62
2018-04-11T18:25:19.356Z,18.59
2018-04-11T18:27:47.740Z,18.56
2018-04-11T18:30:16.116Z,18.54
2018-04-11T18:32:44.495Z,18.49
2018-04-11T18:35:13.617Z,18.44
2018-04-11T18:37:43.407Z,18.40
2018-04-11T18:40:17.008Z,18.37
2018-04-11T18:42:45.410Z,18.32
2018-04-11T18:45:16.628Z,18.33
2018-04-11T18:47:45.015Z,18.30
2018-04-11T18:50:13.424Z,18.31
2018-04-11T18:52:41.792Z,18.26
2018-04-11T18:55:10.725Z,18.27
2018-04-11T18:57:39.097Z,18.28
2018-04-11T19:00:16.384Z,18.32
2018-04-11T19:02:44.773Z,18.30
2018-04-11T19:05:13.149Z,18.26
2018-04-11T19:07:41.533Z,18.26
2018-04-11T19:10:16.829Z,18.23
2018-04-11T19:12:45.202Z,18.14
2018-04-11T19:15:16.853Z,18.12
2018-04-11T19:17:45.221Z,18.16
2018-04-11T19:20:13.594Z,18.14
2018-04-11T19:22:41.966Z,18.07
2018-04-11T19:25:12.335Z,18.03
2018-04-11T19:27:40.849Z,17.95
2018-04-11T19:30:10.563Z,17.90
2018-04-11T19:32:38.707Z,17.85
2018-04-11T19:35:11.754Z,17.37
2018-04-11T19:37:40.150Z,17.74
2018-04-11T19:40:12.665Z,17.71
2018-04-11T19:42:41.527Z,17.69
2018-04-11T19:45:09.671Z,17.66
2018-04-11T19:47:38.046Z,17.66
2018-04-11T19:50:10.423Z,17.67
2018-04-11T19:52:38.946Z,17.59
2018-04-11T19:55:16.032Z,17.15
2018-04-11T19:57:44.408Z,17.42
2018-04-11T20:00:15.014Z,17.37
2018-04-11T20:02:43.389Z,17.33
2018-04-11T20:05:16.967Z,17.36
2018-04-11T20:07:45.346Z,17.39
2018-04-11T20:10:16.987Z,17.44
2018-04-11T20:12:45.386Z,17.37
2018-04-11T20:15:14.575Z,17.35
2018-04-11T20:17:42.721Z,17.29
2018-04-11T20:20:14.803Z,16.96
2018-04-11T20:22:43.183Z,17.04
2018-04-11T20:25:11.718Z,16.81
2018-04-11T20:27:40.091Z,17.02
2018-04-11T20:30:15.118Z,16.90
2018-04-11T20:32:43.514Z,16.74
2018-04-11T20:35:13.410Z,16.68
2018-04-11T20:37:41.809Z,16.62
2018-04-11T20:40:15.486Z,16.59
2018-04-11T20:42:43.857Z,16.57
2018-04-11T20:45:12.227Z,16.56
2018-04-11T20:47:40.600Z,16.57
2018-04-11T20:50:10.710Z,16.62
2018-04-11T20:52:39.097Z,16.64
2018-04-11T20:55:09.460Z,16.66
2018-04-11T20:57:37.858Z,16.71
2018-04-11T21:00:15.108Z,16.74
2018-04-11T21:02:43.500Z,16.76
2018-04-11T21:05:12.966Z,16.78
2018-04-11T21:07:41.340Z,16.82
2018-04-11T21:10:10.776Z,16.86
2018-04-11T21:12:39.161Z,16.88
2018-04-11T21:15:14.861Z,16.88
2018-04-11T21:17:43.259Z,16.85
2018-04-11T21:20:15.830Z,16.75
2018-04-11T21:22:44.213Z,16.69
2018-04-11T21:25:12.817Z,16.40
2018-04-11T21:27:41.326Z,16.23
2018-04-11T21:30:16.394Z,16.07
2018-04-11T21:32:44.898Z,16.07
2018-04-11T21:35:13.263Z,16.08
2018-04-11T21:37:41.649Z,16.12
2018-04-11T21:40:10.025Z,16.11
2018-04-11T21:42:38.411Z,16.11
2018-04-11T21:45:09.105Z,16.07
2018-04-11T21:47:37.706Z,16.03
2018-04-11T21:50:10.143Z,15.97
2018-04-11T21:52:38.575Z,15.87
2018-04-11T21:55:11.094Z,15.84
2018-04-11T21:57:39.468Z,15.86
2018-04-11T22:00:12.013Z,15.79
2018-04-11T22:02:40.408Z,15.80
2018-04-11T22:05:09.613Z,15.75
2018-04-11T22:07:38.000Z,15.70
2018-04-11T22:10:08.342Z,15.71
2018-04-11T22:12:36.751Z,15.68
2018-04-11T22:15:05.364Z,15.65
2018-04-11T22:17:37.725Z,15.62
2018-04-11T22:20:09.416Z,15.21
2018-04-11T22:22:37.816Z,15.57
2018-04-11T22:27:40.613Z,15.67
2018-04-11T22:30:12.141Z,15.73
2018-04-11T22:32:40.566Z,15.73
2018-04-11T22:35:12.544Z,15.75
2018-04-11T22:37:40.988Z,15.72
2018-04-11T22:40:16.282Z,15.60
2018-04-11T22:42:44.834Z,15.51
2018-04-11T22:45:13.252Z,15.46
2018-04-11T22:47:41.319Z,15.47
2018-04-11T22:50:09.739Z,14.73
2018-04-11T22:52:38.152Z,15.62
2018-04-11T22:55:10.853Z,15.70
2018-04-11T22:57:39.217Z,15.72
2018-04-11T23:00:09.235Z,15.70
2018-04-11T23:02:37.612Z,15.74
2018-04-11T23:05:06.085Z,15.77
2018-04-11T23:07:35.141Z,15.57
2018-04-11T23:10:03.291Z,15.75
2018-04-11T23:12:31.607Z,15.71
2018-04-11T23:15:00.530Z,15.64
2018-04-11T23:17:28.768Z,15.51
2018-04-11T23:19:57.845Z,15.45
2018-04-11T23:22:26.211Z,15.41
2018-04-11T23:24:54.338Z,15.37
2018-04-11T23:27:22.706Z,15.30
2018-04-11T23:29:51.090Z,15.29
2018-04-11T23:32:19.460Z,15.25
2018-04-11T23:34:48.453Z,15.19
2018-04-11T23:37:16.810Z,15.31
2018-04-11T23:39:45.168Z,15.34
2018-04-11T23:42:13.559Z,15.33
2018-04-11T23:44:41.961Z,15.31
2018-04-11T23:47:10.366Z,15.27
2018-04-11T23:49:38.749Z,15.26
2018-04-11T23:52:07.841Z,15.27
2018-04-11T23:54:36.205Z,15.22
2018-04-11T23:57:04.578Z,15.17
2018-04-11T23:59:32.937Z,15.13
